Time,TemperatureF,DewpointF,PressureIn,WindDirection,WindDirectionDegrees,WindSpeedMPH,WindSpeedGustMPH,Humidity,HourlyPrecipIn,Conditions,Clouds,dailyrainin,SoftwareType,DateUTC
2013-02-14 00:00:00,46.4,41.0,30.09,WSW,257,0.0,0.0,82,0.00,,,-99.99,wx200d/1.3,2013-02-14 08:00:00,
2013-02-14 00:15:00,46.2,41.0,30.09,WSW,257,0.0,0.0,82,0.00,,,-99.99,wx200d/1.3,2013-02-14 08:15:00,
2013-02-14 00:30:00,46.0,41.0,30.09,WSW,257,0.0,0.0,82,0.00,,,-99.99,wx200d/1.3,2013-02-14 08:30:00,
2013-02-14 00:45:00,46.0,41.0,30.09,WSW,257,0.0,0.0,82,0.00,,,-99.99,wx200d/1.3,2013-02-14 08:45:00,
2013-02-14 01:00:00,46.0,41.0,30.09,WSW,257,0.0,0.0,82,0.00,,,-99.99,wx200d/1.3,2013-02-14 09:00:00,
2013-02-14 01:15:00,46.0,41.0,30.09,WSW,256,0.0,0.0,83,0.00,,,-99.99,wx200d/1.3,2013-02-14 09:15:00,
2013-02-14 01:30:00,46.0,41.0,30.09,WSW,257,0.0,0.0,83,0.00,,,-99.99,wx200d/1.3,2013-02-14 09:30:00,
2013-02-14 01:45:00,45.9,41.0,30.09,WSW,257,0.0,0.0,83,0.00,,,-99.99,wx200d/1.3,2013-02-14 09:45:00,
2013-02-14 02:00:00,45.3,39.0,30.09,WSW,257,0.0,0.0,83,0.00,,,-99.99,wx200d/1.3,2013-02-14 10:00:00,
2013-02-14 02:15:00,45.3,41.0,30.09,WSW,257,0.0,0.0,84,0.00,,,-99.99,wx200d/1.3,2013-02-14 10:15:00,
2013-02-14 02:30:00,45.3,41.0,30.09,WSW,256,0.0,0.0,84,0.00,,,-99.99,wx200d/1.3,2013-02-14 10:30:00,
2013-02-14 02:45:00,45.5,43.0,30.09,WSW,257,0.0,0.0,84,0.00,,,-99.99,wx200d/1.3,2013-02-14 10:45:00,
2013-02-14 03:00:00,45.7,43.0,30.09,WSW,257,0.0,0.0,85,0.00,,,-99.99,wx200d/1.3,2013-02-14 11:00:00,
2013-02-14 03:15:00,46.6,43.0,30.09,WSW,257,0.0,0.0,85,0.00,,,-99.99,wx200d/1.3,2013-02-14 11:15:00,
2013-02-14 03:30:00,47.7,45.0,30.06,WSW,257,0.0,0.0,86,0.00,,,-99.99,wx200d/1.3,2013-02-14 11:30:00,
2013-02-14 03:45:00,48.2,45.0,30.09,WSW,256,0.0,0.0,86,0.00,,,-99.99,wx200d/1.3,2013-02-14 11:45:00,
2013-02-14 04:00:00,48.4,45.0,30.06,WSW,257,0.0,0.0,86,0.00,,,-99.99,wx200d/1.3,2013-02-14 12:00:00,
2013-02-14 04:15:00,48.6,45.0,30.09,WSW,257,0.0,0.0,87,0.00,,,-99.99,wx200d/1.3,2013-02-14 12:15:00,
2013-02-14 04:30:00,48.6,45.0,30.06,WSW,257,0.0,0.0,87,0.00,,,-99.99,wx200d/1.3,2013-02-14 12:30:00,
2013-02-14 04:45:00,48.7,45.0,30.09,WSW,257,0.0,0.0,87,0.00,,,-99.99,wx200d/1.3,2013-02-14 12:45:00,
2013-02-14 05:00:00,48.9,45.0,30.09,WSW,256,0.0,0.0,88,0.00,,,-99.99,wx200d/1.3,2013-02-14 13:00:00,
2013-02-14 05:15:00,48.9,45.0,30.09,WSW,256,0.0,0.0,87,0.00,,,-99.99,wx200d/1.3,2013-02-14 13:15:00,
2013-02-14 05:30:00,48.9,45.0,30.09,WSW,257,0.0,0.0,88,0.00,,,-99.99,wx200d/1.3,2013-02-14 13:30:00,
2013-02-14 05:45:00,48.7,45.0,30.09,WSW,257,0.0,0.0,88,0.00,,,-99.99,wx200d/1.3,2013-02-14 13:45:00,
2013-02-14 06:00:00,48.7,45.0,30.09,WSW,256,0.0,0.0,88,0.00,,,-99.99,wx200d/1.3,2013-02-14 14:00:00,
2013-02-14 06:15:00,48.9,45.0,30.09,WSW,257,0.0,0.0,88,0.00,,,-99.99,wx200d/1.3,2013-02-14 14:15:00,
2013-02-14 06:30:00,48.9,45.0,30.09,WSW,257,0.0,0.0,88,0.00,,,-99.99,wx200d/1.3,2013-02-14 14:30:00,
2013-02-14 06:45:00,47.8,45.0,30.09,WSW,257,0.0,0.0,89,0.00,,,-99.99,wx200d/1.3,2013-02-14 14:45:00,
2013-02-14 07:00:00,47.3,45.0,30.09,WSW,256,0.0,0.0,88,0.00,,,-99.99,wx200d/1.3,2013-02-14 15:00:00,
2013-02-14 07:15:00,47.8,45.0,30.09,WSW,257,0.0,0.0,88,0.00,,,-99.99,wx200d/1.3,2013-02-14 15:15:00,
2013-02-14 07:30:00,48.4,45.0,30.09,WSW,257,0.0,0.0,87,0.00,,,-99.99,wx200d/1.3,2013-02-14 15:30:00,
2013-02-14 07:45:00,48.7,45.0,30.09,WSW,256,0.0,0.0,87,0.00,,,-99.99,wx200d/1.3,2013-02-14 15:45:00,
2013-02-14 08:00:00,49.1,46.0,30.12,WSW,256,0.0,0.0,87,0.00,,,-99.99,wx200d/1.3,2013-02-14 16:00:00,
2013-02-14 08:15:00,49.1,46.0,30.12,WSW,257,0.0,0.0,86,0.00,,,-99.99,wx200d/1.3,2013-02-14 16:15:00,
2013-02-14 08:30:00,49.6,46.0,30.12,WSW,256,0.0,0.0,86,0.00,,,-99.99,wx200d/1.3,2013-02-14 16:30:00,
2013-02-14 08:45:00,50.2,46.0,30.09,WSW,257,0.0,0.0,86,0.00,,,-99.99,wx200d/1.3,2013-02-14 16:45:00,
2013-02-14 09:00:00,50.7,46.0,30.12,WSW,257,0.0,0.0,85,0.00,,,-99.99,wx200d/1.3,2013-02-14 17:00:00,
2013-02-14 09:15:00,51.6,48.0,30.12,WSW,257,0.0,0.0,85,0.00,,,-99.99,wx200d/1.3,2013-02-14 17:15:00,
2013-02-14 09:30:00,52.5,46.0,30.09,WSW,257,0.0,0.0,83,0.00,,,-99.99,wx200d/1.3,2013-02-14 17:30:00,
2013-02-14 09:45:00,53.6,48.0,30.12,WSW,256,0.0,0.0,80,0.00,,,-99.99,wx200d/1.3,2013-02-14 17:45:00,
2013-02-14 10:00:00,54.3,45.0,30.12,WSW,257,0.0,0.0,73,0.00,,,-99.99,wx200d/1.3,2013-02-14 18:00:00,
2013-02-14 10:15:00,55.2,43.0,30.12,WSW,258,0.0,0.0,61,0.00,,,-99.99,wx200d/1.3,2013-02-14 18:15:00,
2013-02-14 10:30:00,55.8,36.0,30.09,WSW,258,0.0,0.0,46,0.00,,,-99.99,wx200d/1.3,2013-02-14 18:30:00,
2013-02-14 10:45:00,56.8,32.0,30.12,NW,305,0.0,0.0,37,0.00,,,-99.99,wx200d/1.3,2013-02-14 18:45:00,
2013-02-14 11:00:00,57.6,32.0,30.12,NW,305,0.0,0.0,32,0.00,,,-99.99,wx200d/1.3,2013-02-14 19:00:00,
2013-02-14 11:15:00,58.1,32.0,30.12,NW,305,0.0,0.0,29,0.00,,,-99.99,wx200d/1.3,2013-02-14 19:15:00,
2013-02-14 11:30:00,58.8,32.0,30.09,NW,305,0.0,0.0,27,0.00,,,-99.99,wx200d/1.3,2013-02-14 19:30:00,
2013-02-14 11:45:00,59.4,32.0,30.09,East,82,0.0,0.0,26,0.00,,,-99.99,wx200d/1.3,2013-02-14 19:45:00,
2013-02-14 12:00:00,59.9,32.0,30.09,ESE,109,0.0,3.6,25,0.00,,,-99.99,wx200d/1.3,2013-02-14 20:00:00,
2013-02-14 12:15:00,60.8,32.0,30.09,East,91,0.0,0.0,24,0.00,,,-99.99,wx200d/1.3,2013-02-14 20:15:00,
2013-02-14 12:30:00,61.7,32.0,30.09,WSW,241,0.0,0.0,24,0.00,,,-99.99,wx200d/1.3,2013-02-14 20:30:00,
2013-02-14 12:45:00,62.4,32.0,30.09,East,89,0.0,0.0,24,0.00,,,-99.99,wx200d/1.3,2013-02-14 20:45:00,
2013-02-14 13:00:00,63.0,32.0,30.09,East,87,2.7,0.0,21,0.00,,,-99.99,wx200d/1.3,2013-02-14 21:00:00,
2013-02-14 13:15:00,63.5,32.0,30.06,NNE,21,0.0,0.0,21,0.00,,,-99.99,wx200d/1.3,2013-02-14 21:15:00,
2013-02-14 13:30:00,64.2,32.0,30.06,East,98,0.0,3.6,21,0.00,,,-99.99,wx200d/1.3,2013-02-14 21:30:00,
2013-02-14 13:45:00,64.8,32.0,30.06,East,90,0.0,2.7,20,0.00,,,-99.99,wx200d/1.3,2013-02-14 21:45:00,
2013-02-14 14:00:00,65.5,32.0,30.06,SSW,210,0.0,0.0,18,0.00,,,-99.99,wx200d/1.3,2013-02-14 22:00:00,
2013-02-14 14:15:00,65.7,32.0,30.06,ESE,109,0.0,0.0,18,0.00,,,-99.99,wx200d/1.3,2013-02-14 22:15:00,
2013-02-14 14:30:00,66.0,32.0,30.06,ENE,77,0.0,0.0,18,0.00,,,-99.99,wx200d/1.3,2013-02-14 22:30:00,
2013-02-14 14:45:00,66.4,32.0,30.06,East,90,3.1,0.0,17,0.00,,,-99.99,wx200d/1.3,2013-02-14 22:45:00,
2013-02-14 15:00:00,66.9,32.0,30.06,West,279,0.0,0.0,17,0.00,,,-99.99,wx200d/1.3,2013-02-14 23:00:00,
2013-02-14 15:15:00,66.7,32.0,30.06,West,279,0.0,2.7,17,0.00,,,-99.99,wx200d/1.3,2013-02-14 23:15:00,
2013-02-14 15:30:00,67.1,32.0,30.06,SW,236,0.0,0.0,17,0.00,,,-99.99,wx200d/1.3,2013-02-14 23:30:00,
2013-02-14 15:45:00,67.5,32.0,30.06,West,271,2.2,2.2,17,0.00,,,-99.99,wx200d/1.3,2013-02-14 23:45:00,
2013-02-14 16:00:00,67.3,32.0,30.06,West,273,0.0,0.0,17,0.00,,,-99.99,wx200d/1.3,2013-02-15 00:00:00,
2013-02-14 16:15:00,65.5,32.0,30.03,West,274,2.7,2.7,18,0.00,,,-99.99,wx200d/1.3,2013-02-15 00:15:00,
2013-02-14 16:30:00,63.9,32.0,30.03,West,279,0.0,0.0,21,0.00,,,-99.99,wx200d/1.3,2013-02-15 00:30:00,
2013-02-14 16:45:00,63.1,32.0,30.03,West,265,2.7,2.7,21,0.00,,,-99.99,wx200d/1.3,2013-02-15 00:45:00,
2013-02-14 17:00:00,62.1,32.0,30.03,West,278,2.2,2.7,21,0.00,,,-99.99,wx200d/1.3,2013-02-15 01:00:00,
2013-02-14 17:15:00,60.8,32.0,30.03,WNW,284,2.2,2.7,21,0.00,,,-99.99,wx200d/1.3,2013-02-15 01:15:00,
2013-02-14 17:30:00,59.7,32.0,30.03,West,274,0.0,0.0,24,0.00,,,-99.99,wx200d/1.3,2013-02-15 01:30:00,
2013-02-14 17:45:00,58.8,32.0,30.03,West,274,0.0,0.0,25,0.00,,,-99.99,wx200d/1.3,2013-02-15 01:45:00,
2013-02-14 18:00:00,57.9,32.0,30.03,West,274,0.0,0.0,25,0.00,,,-99.99,wx200d/1.3,2013-02-15 02:00:00,
2013-02-14 18:15:00,57.6,32.0,30.03,West,274,0.0,0.0,26,0.00,,,-99.99,wx200d/1.3,2013-02-15 02:15:00,
2013-02-14 18:30:00,57.0,32.0,30.06,West,274,0.0,0.0,27,0.00,,,-99.99,wx200d/1.3,2013-02-15 02:30:00,
2013-02-14 18:45:00,56.7,32.0,30.06,West,273,0.0,0.0,27,0.00,,,-99.99,wx200d/1.3,2013-02-15 02:45:00,
2013-02-14 19:00:00,57.6,32.0,30.06,West,273,0.0,0.0,26,0.00,,,-99.99,wx200d/1.3,2013-02-15 03:00:00,
2013-02-14 19:15:00,57.0,32.0,30.06,West,273,0.0,0.0,27,0.00,,,-99.99,wx200d/1.3,2013-02-15 03:15:00,
2013-02-14 19:30:00,57.2,32.0,30.06,West,273,0.0,0.0,27,0.00,,,-99.99,wx200d/1.3,2013-02-15 03:30:00,
2013-02-14 19:45:00,58.1,32.0,30.06,West,273,0.0,0.0,26,0.00,,,-99.99,wx200d/1.3,2013-02-15 03:45:00,
2013-02-14 20:00:00,58.8,32.0,30.06,West,273,0.0,0.0,26,0.00,,,-99.99,wx200d/1.3,2013-02-15 04:00:00,
2013-02-14 20:15:00,58.8,32.0,30.06,West,273,0.0,0.0,26,0.00,,,-99.99,wx200d/1.3,2013-02-15 04:15:00,
2013-02-14 20:30:00,59.0,32.0,30.06,West,273,0.0,0.0,25,0.00,,,-99.99,wx200d/1.3,2013-02-15 04:30:00,
2013-02-14 20:45:00,57.6,32.0,30.06,West,273,0.0,0.0,26,0.00,,,-99.99,wx200d/1.3,2013-02-15 04:45:00,
2013-02-14 21:15:00,55.6,32.0,30.06,West,273,0.0,0.0,29,0.00,,,-99.99,wx200d/1.3,2013-02-15 05:15:00,
2013-02-14 21:30:00,55.0,32.0,30.06,West,273,0.0,0.0,30,0.00,,,-99.99,wx200d/1.3,2013-02-15 05:30:00,
2013-02-14 21:45:00,54.9,32.0,30.06,West,273,0.0,0.0,31,0.00,,,-99.99,wx200d/1.3,2013-02-15 05:45:00,
2013-02-14 22:00:00,54.5,32.0,30.06,West,273,0.0,0.0,33,0.00,,,-99.99,wx200d/1.3,2013-02-15 06:00:00,
2013-02-14 22:15:00,54.1,32.0,30.06,West,273,0.0,0.0,34,0.00,,,-99.99,wx200d/1.3,2013-02-15 06:15:00,
2013-02-14 22:30:00,54.0,32.0,30.06,West,273,0.0,0.0,35,0.00,,,-99.99,wx200d/1.3,2013-02-15 06:30:00,
2013-02-14 22:45:00,54.0,32.0,30.09,West,273,0.0,0.0,36,0.00,,,-99.99,wx200d/1.3,2013-02-15 06:45:00,
2013-02-14 23:00:00,54.0,32.0,30.09,West,273,0.0,0.0,36,0.00,,,-99.99,wx200d/1.3,2013-02-15 07:00:00,
2013-02-14 23:15:00,53.8,32.0,30.09,West,273,0.0,0.0,36,0.00,,,-99.99,wx200d/1.3,2013-02-15 07:15:00,
2013-02-14 23:30:00,53.4,32.0,30.06,West,273,0.0,0.0,37,0.00,,,-99.99,wx200d/1.3,2013-02-15 07:30:00,
2013-02-14 23:45:00,53.4,32.0,30.09,West,273,0.0,0.0,37,0.00,,,-99.99,wx200d/1.3,2013-02-15 07:45:00,